Flight Track Log - Related Links

Times and Time Zones

All times are in EDT time to prevent confusion due to time zone crossing. See the UAL3851 flight status page for this flight to view local times or setup timezone preferences in your user account.


Time Position Orientation Groundspeed Altitude Reporting Facility
EDT Latitude Longitude Course Direction KTS MPH feet Rate Location/Type
Sun 10:14:19 AM 38.0114 -84.6319 230° Southwest 162 186 2,100  Level Indianapolis Center
Sun 10:15:21 AM 37.9700 -84.6936 230° Southwest 210 242 4,200 1,887 Climbing Indianapolis Center
Sun 10:16:23 AM 37.9419 -84.7656 244° Southwest 220 253 6,000 1,645 Climbing Indianapolis Center
Sun 10:17:25 AM 37.9086 -84.8483 243° Southwest 253 291 7,600 1,694 Climbing Indianapolis Center
Sun 10:18:27 AM 37.8889 -84.9414 255° West 277 319 9,500 1,355 Climbing Indianapolis Center
Sun 10:19:29 AM 37.9094 -85.0389 285° West 284 327 10,400 823 Climbing Indianapolis Center
Sun 10:20:31 AM 37.9503 -85.1392 297° West 314 361 11,200 871 Climbing Indianapolis Center
Sun 10:21:33 AM 37.9908 -85.2531 294° West 339 390 12,200 1,016 Climbing Indianapolis Center
Sun 10:22:35 AM 38.0292 -85.3656 293° West 346 398 13,300 1,113 Climbing Indianapolis Center
Sun 10:23:37 AM 38.0722 -85.4758 296° West 350 403 14,500 1,258 Climbing Indianapolis Center
Sun 10:24:39 AM 38.1828 -85.5150 344° North 344 396 15,900 1,161 Climbing Indianapolis Center
Sun 10:25:41 AM 38.2822 -85.5214 357° North 353 406 16,900 927 Climbing Indianapolis Center
Sun 10:26:42 AM 38.3814 -85.5292 356° North 357 411 17,800 976 Climbing Indianapolis Center
Sun 10:27:44 AM 38.4814 -85.5358 357° North 359 413 18,900 1,016 Climbing Indianapolis Center
Sun 10:28:46 AM 38.5814 -85.5431 357° North 359 413 19,900 968 Climbing Indianapolis Center
Sun 10:29:48 AM 38.6908 -85.5511 357° North 365 420 20,900 871 Climbing Indianapolis Center
Sun 10:30:50 AM 38.7942 -85.5583 357° North 370 426 21,700 774 Climbing Indianapolis Center
Sun 10:31:52 AM 38.8967 -85.5658 357° North 372 428 22,500 774 Climbing Indianapolis Center
Sun 10:32:54 AM 39.0017 -85.5731 357° North 377 434 23,300 871 Climbing Indianapolis Center
Sun 10:33:56 AM 39.1256 -85.5814 357° North 374 430 24,300 919 Climbing Indianapolis Center
Sun 10:34:58 AM 39.2303 -85.5892 357° North 377 434 25,200 871 Climbing Indianapolis Center
Sun 10:36:00 AM 39.3331 -85.5964 357° North 375 432 26,100 780 Climbing Indianapolis Center
Sun 10:37:01 AM 39.4347 -85.6033 357° North 370 426 26,800 634 Climbing Indianapolis Center
Sun 10:38:03 AM 39.5381 -85.6106 357° North 373 429 27,400 581 Climbing Indianapolis Center
Sun 10:39:05 AM 39.6633 -85.6194 357° North 377 434 28,000 290 Climbing Indianapolis Center
Sun 10:40:07 AM 39.7706 -85.6272 357° North 385 443 28,000  Level Indianapolis Center
Sun 10:41:09 AM 39.8828 -85.6347 357° North 399 459 28,000 -290 Level Indianapolis Center
Sun 10:42:11 AM 39.9972 -85.6433 357° North 412 474 27,400 -677 Descending Indianapolis Center
Sun 10:43:13 AM 40.1189 -85.6511 357° North 430 495 26,600 -968 Descending Indianapolis Center
Sun 10:44:15 AM 40.2617 -85.6633 356° North 432 497 25,400 -1,073 Descending Indianapolis Center
Sun 10:45:16 AM 40.3703 -85.6986 346° North 423 487 24,400 -787 Descending Indianapolis Center
Sun 10:46:17 AM 40.4511 -85.8069 314° West 425 489 23,800 -780 Descending Chicago Center
Sun 10:47:19 AM 40.5286 -85.9225 311° West 425 489 22,800 -871 Descending Chicago Center
Sun 10:48:21 AM 40.6047 -86.0367 311° West 421 484 22,000 -387 Descending Chicago Center
Sun 10:49:23 AM 40.6814 -86.1517 311° West 419 482 22,000  Level Chicago Center
Sun 10:50:25 AM 40.7572 -86.2658 311° West 419 482 22,000  Level Chicago Center
Sun 10:51:26 AM 40.8525 -86.4103 311° West 425 489 22,000  Level Chicago Center
Sun 10:52:28 AM 40.9292 -86.5272 311° West 424 488 22,000 -145 Level Chicago Center
Sun 10:53:30 AM 41.0067 -86.6447 311° West 425 489 21,700 -968 Descending Chicago Center
Sun 10:54:32 AM 41.0811 -86.7592 311° West 423 487 20,000 -1,790 Descending Chicago Center
Sun 10:55:34 AM 41.1553 -86.8706 312° West 414 476 18,000 -2,516 Descending Chicago Center
Sun 10:56:36 AM 41.2389 -87.0000 311° West 393 452 14,800 -2,732 Descending Chicago Center
Sun 10:57:37 AM 41.3064 -87.1042 311° West 378 435 12,400 -1,854 Descending Chicago Center
Sun 10:58:39 AM 41.3725 -87.2031 312° West 364 419 11,000 -677 Descending Chicago Center
Sun 10:59:41 AM 41.4469 -87.2917 318° Northwest 362 417 11,000  Level Chicago Center
Sun 11:00:43 AM 41.5117 -87.3658 319° Northwest 314 361 11,000  Level Chicago Center
Sun 11:01:45 AM 41.5844 -87.4486 320° Northwest 289 333 11,000  Level Chicago Center
Sun 11:02:46 AM 41.6478 -87.5167 321° Northwest 294 338 11,000 -98 Level Chicago Center
Sun 11:03:48 AM 41.7089 -87.5878 319° Northwest 293 337 10,800 -726 Descending Chicago Center
Sun 11:04:50 AM 41.7700 -87.6564 320° Northwest 292 336 9,500 -1,210 Descending Chicago Center
Sun 11:05:52 AM 41.8231 -87.7169 320° Northwest 258 297 8,300 -1,210 Descending Chicago Center
Sun 11:06:54 AM 41.8758 -87.7911 314° West 235 270 7,000 -766 Descending Chicago Center
Sun 11:07:26 AM 41.8833 -87.8333 283° West 201 231 7,100  Climbing Chicago TRACON
Sun 11:08:26 AM 41.8833 -87.9000 270° West 196 226 7,000 -48 Descending Chicago TRACON
Sun 11:09:32 AM 41.8833 -87.9833 270° West 201 231 7,000 -300 Level Chicago TRACON
Sun 11:10:26 AM 41.8833 -88.0500 270° West 190 219 6,400 -947 Descending Chicago TRACON
Sun 11:11:26 AM 41.8833 -88.1167 270° West 188 216 5,200 -866 Descending Chicago TRACON
Sun 11:12:03 AM 41.8836 -88.1561 271° West 189 217 5,000 -121 Descending Chicago Center
Sun 11:13:05 AM 41.8833 -88.2261 270° West 189 217 5,000 -194 Level Chicago Center
Sun 11:14:07 AM 41.9022 -88.2839 294° West 197 227 4,600 -484 Descending Chicago Center
Sun 11:15:09 AM 41.9553 -88.2917 354° North 195 224 4,000 -290 Descending Chicago Center
Sun 11:16:11 AM 41.9669 -88.2372 74° East 189 217 4,000  Level Chicago Center
Sun 11:17:13 AM 41.9681 -88.1753 89° East 173 199 4,000 -435 Level Chicago Center
Sun 11:18:15 AM 41.9681 -88.0983 90° East 172 198 3,100 -878 Descending Chicago Center
Sun 11:19:16 AM 41.9686 -88.0383 89° East 168 193 2,200 -762 Descending Chicago Center
Sun 11:20:21 AM 41.9667 -87.9833 93° East 134 154 1,500 -646 Descending Chicago TRACON

Login

Don't have an account? Register now (free) for customized features, flight alerts, and more!